Alkabo, North Dakota
Current Conditions -  °F | °C
As of 7:52 PM on Monday 22 Dec 2014 (Local Time) from KISN Reporting Station
Overcast Overcast  
Wind Chill: 14°   Ceiling: 1100
Heat Index: 27°   Visibility: 10mi
Dew Point: 23°   Wind: 17mph
Humidity: 85%   Direction: 340°NNW
Pressure: 29.84"   Gusts: NA
Location:  48.5901°N, 103.922°W
Report Text: KISN 230152Z AUTO 34015KT 10SM OVC011 M03/M05 A2984 RMK AO2 SLP133 T10281050
Loading
Personal Weather Stations






























Interactive Weather Map New forecast layout! Learn more

10-Day Weather Forecast

Advertisements
Track Severe Weather on mobile